Time;durP1;ratioP1;P1;durP2;ratioP2;P2;SDS_P1;SDS_P2;PMS_P1;PMS_P2;Temp;Humidity;BMP_temperature;BMP_pressure;BME280_temperature;BME280_humidity;BME280_pressure;Samples;Min_cycle;Max_cycle;Signal;HPM_P1;HPM_P2
2021/10/27 00:01:18;;;;;;;16.48;9.32;;;12.50;99.90;;;;;;5006771;28;20037;-70
2021/10/27 00:03:44;;;;;;;13.68;9.25;;;12.50;99.90;;;;;;5016791;28;20049;-70
2021/10/27 00:06:10;;;;;;;15.10;9.32;;;12.50;99.90;;;;;;5018016;28;20041;-70
2021/10/27 00:08:35;;;;;;;16.95;9.63;;;12.50;99.90;;;;;;5017747;28;20682;-70
2021/10/27 00:11:01;;;;;;;15.80;9.75;;;12.50;99.90;;;;;;5014439;28;20029;-70
2021/10/27 00:13:27;;;;;;;17.88;9.90;;;12.50;99.90;;;;;;5013339;28;20072;-71
2021/10/27 00:15:52;;;;;;;18.30;10.65;;;12.50;99.90;;;;;;5009814;28;20483;-70
2021/10/27 00:18:21;;;;;;;19.85;10.05;;;12.50;99.90;;;;;;5012093;28;20504;-70
2021/10/27 00:20:47;;;;;;;20.20;11.13;;;12.50;99.90;;;;;;5008491;28;20018;-70
2021/10/27 00:23:13;;;;;;;17.27;10.75;;;12.50;99.90;;;;;;5019383;28;20038;-70
2021/10/27 00:25:38;;;;;;;18.45;11.30;;;12.50;99.90;;;;;;5011770;28;20033;-70
2021/10/27 00:28:04;;;;;;;19.58;10.85;;;12.50;99.90;;;;;;5013170;28;20056;-70
2021/10/27 00:30:30;;;;;;;25.35;11.68;;;12.50;99.90;;;;;;5008362;28;20502;-70
2021/10/27 00:32:57;;;;;;;17.05;9.75;;;12.50;99.90;;;;;;5011827;28;20080;-70
2021/10/27 00:35:23;;;;;;;17.60;10.57;;;12.60;99.90;;;;;;5013098;28;20037;-70
2021/10/27 00:37:48;;;;;;;19.08;10.48;;;12.60;99.90;;;;;;5011846;28;20030;-70
2021/10/27 00:40:14;;;;;;;18.65;10.38;;;12.60;99.90;;;;;;5016041;28;20479;-70
2021/10/27 00:42:40;;;;;;;20.40;11.60;;;12.60;99.90;;;;;;5013288;28;20105;-70
2021/10/27 00:45:06;;;;;;;17.40;10.50;;;12.60;99.90;;;;;;5026200;28;20127;-70
2021/10/27 00:47:32;;;;;;;19.45;10.52;;;12.60;99.90;;;;;;5015180;28;20029;-70
2021/10/27 00:49:58;;;;;;;18.45;10.98;;;12.60;99.90;;;;;;5008849;28;20135;-70
2021/10/27 00:52:23;;;;;;;20.13;10.75;;;12.60;99.90;;;;;;5015447;28;20021;-70
2021/10/27 00:54:51;;;;;;;20.67;10.65;;;12.70;99.90;;;;;;5016513;28;20030;-70
2021/10/27 00:57:21;;;;;;;18.95;11.40;;;12.60;99.90;;;;;;5015400;28;20029;-71
2021/10/27 00:59:47;;;;;;;15.70;10.10;;;12.60;99.90;;;;;;5016698;28;20022;-70
2021/10/27 01:02:15;;;;;;;17.33;10.43;;;12.60;99.90;;;;;;5014850;28;20048;-70
2021/10/27 01:04:41;;;;;;;20.70;10.63;;;12.60;99.90;;;;;;5010401;28;20097;-70
2021/10/27 01:07:07;;;;;;;21.75;10.95;;;12.60;99.90;;;;;;5010536;28;20136;-70
2021/10/27 01:09:34;;;;;;;20.80;10.95;;;12.70;99.90;;;;;;5006978;28;20026;-70
2021/10/27 01:12:01;;;;;;;21.73;11.35;;;12.70;99.90;;;;;;5013431;28;20021;-70
2021/10/27 01:14:35;;;;;;;19.67;10.98;;;12.70;99.90;;;;;;5012763;28;20120;-70
2021/10/27 01:17:01;;;;;;;18.17;11.02;;;12.70;99.90;;;;;;5007871;28;20026;-70
2021/10/27 01:19:26;;;;;;;18.98;11.05;;;12.70;99.90;;;;;;5016618;28;20052;-70
2021/10/27 01:21:53;;;;;;;15.30;10.18;;;12.70;99.90;;;;;;5012943;28;20108;-70
2021/10/27 01:24:18;;;;;;;26.50;12.05;;;12.70;99.90;;;;;;5016370;28;20029;-70
2021/10/27 01:26:44;;;;;;;22.55;11.68;;;12.70;99.90;;;;;;5013712;28;20038;-70
2021/10/27 01:29:10;;;;;;;18.25;12.05;;;12.70;99.90;;;;;;5014914;28;20108;-70
2021/10/27 01:31:35;;;;;;;18.52;10.60;;;12.70;99.90;;;;;;5014035;28;20582;-71
2021/10/27 01:34:01;;;;;;;18.05;11.77;;;12.70;99.90;;;;;;5015899;28;20022;-70
2021/10/27 01:36:29;;;;;;;18.45;10.95;;;12.70;99.90;;;;;;5015166;28;20036;-70
2021/10/27 01:38:55;;;;;;;17.50;10.57;;;12.70;99.90;;;;;;5012924;28;20088;-70
2021/10/27 01:41:20;;;;;;;20.42;11.70;;;12.80;99.90;;;;;;5012476;28;20629;-70
2021/10/27 01:43:56;;;;;;;24.85;12.55;;;12.80;99.90;;;;;;5015154;28;20112;-70
2021/10/27 01:46:27;;;;;;;19.85;11.98;;;12.80;99.90;;;;;;5013321;28;20029;-70
2021/10/27 01:48:53;;;;;;;17.00;10.98;;;12.80;99.90;;;;;;5017098;28;20039;-70
2021/10/27 01:51:18;;;;;;;21.30;11.55;;;12.80;99.90;;;;;;5007875;28;20038;-70
2021/10/27 01:53:44;;;;;;;22.23;11.80;;;12.80;99.90;;;;;;5007436;28;20057;-72
2021/10/27 01:56:09;;;;;;;19.83;11.35;;;12.80;99.90;;;;;;5014223;28;20026;-70
2021/10/27 01:58:35;;;;;;;23.10;12.55;;;12.80;99.90;;;;;;5015487;28;20029;-70
2021/10/27 02:01:01;;;;;;;19.10;12.32;;;12.80;99.90;;;;;;5014405;28;20026;-70
2021/10/27 02:03:27;;;;;;;20.90;11.90;;;12.80;99.90;;;;;;5018251;28;20022;-70
2021/10/27 02:05:52;;;;;;;17.00;10.57;;;12.80;99.90;;;;;;5017847;28;20056;-70
2021/10/27 02:08:18;;;;;;;18.90;12.70;;;12.80;99.90;;;;;;5019323;28;20058;-71
2021/10/27 02:10:44;;;;;;;19.02;12.65;;;12.80;99.90;;;;;;5018859;28;20061;-70
2021/10/27 02:13:10;;;;;;;26.30;13.32;;;12.90;99.90;;;;;;5014930;28;20033;-70
2021/10/27 02:15:35;;;;;;;22.13;11.20;;;12.90;99.90;;;;;;5011070;28;20026;-70
2021/10/27 02:18:01;;;;;;;18.20;12.05;;;12.90;99.90;;;;;;5025619;28;20024;-70
2021/10/27 02:20:27;;;;;;;19.58;11.45;;;12.90;99.90;;;;;;5015749;28;20026;-70
2021/10/27 02:22:52;;;;;;;23.02;12.35;;;12.80;99.90;;;;;;5016985;28;20084;-70
2021/10/27 02:25:18;;;;;;;20.50;12.73;;;12.80;99.90;;;;;;5019450;28;20033;-70
2021/10/27 02:27:44;;;;;;;18.90;11.43;;;12.80;99.90;;;;;;5011453;28;20030;-71
2021/10/27 02:30:11;;;;;;;22.25;11.75;;;12.80;99.90;;;;;;5017926;28;20109;-70
2021/10/27 02:32:37;;;;;;;23.05;13.48;;;12.80;99.90;;;;;;5012453;28;20033;-70
2021/10/27 02:35:03;;;;;;;23.85;13.57;;;12.90;99.90;;;;;;5016466;28;20029;-71
2021/10/27 02:37:30;;;;;;;24.45;14.02;;;12.90;99.90;;;;;;5015856;28;20033;-71
2021/10/27 02:39:55;;;;;;;21.48;13.07;;;12.90;99.90;;;;;;5012304;28;20446;-70
2021/10/27 02:42:21;;;;;;;23.15;13.75;;;12.90;99.90;;;;;;5016218;28;20022;-70
2021/10/27 02:44:47;;;;;;;22.33;13.32;;;12.90;99.90;;;;;;5015856;28;20108;-70
2021/10/27 02:47:12;;;;;;;24.75;13.30;;;12.90;99.90;;;;;;5012598;28;20033;-70
2021/10/27 02:49:38;;;;;;;22.45;12.93;;;12.90;99.90;;;;;;5015480;28;20376;-70
2021/10/27 02:52:04;;;;;;;22.00;12.93;;;12.90;99.90;;;;;;5012774;28;20357;-70
2021/10/27 02:54:29;;;;;;;22.23;13.48;;;12.90;99.90;;;;;;5019095;28;20434;-70
2021/10/27 02:56:55;;;;;;;22.15;13.23;;;12.90;99.90;;;;;;5016334;28;20543;-70
2021/10/27 02:59:21;;;;;;;21.40;13.10;;;12.90;99.90;;;;;;5013135;28;20018;-70
2021/10/27 03:01:46;;;;;;;22.05;13.88;;;12.90;99.90;;;;;;5011780;28;20032;-70
2021/10/27 03:04:12;;;;;;;21.05;13.43;;;12.90;99.90;;;;;;5016194;28;20036;-70
2021/10/27 03:06:39;;;;;;;25.23;12.43;;;12.90;99.90;;;;;;5010583;28;20025;-70
2021/10/27 03:09:05;;;;;;;22.75;13.63;;;12.90;99.90;;;;;;5014607;28;20046;-70
2021/10/27 03:11:31;;;;;;;27.80;15.15;;;13.00;99.90;;;;;;5014080;28;20387;-70
2021/10/27 03:13:56;;;;;;;26.33;15.63;;;13.00;99.90;;;;;;5015412;28;20456;-70
2021/10/27 03:16:22;;;;;;;23.70;14.38;;;12.90;99.90;;;;;;5016809;28;20395;-70
2021/10/27 03:18:48;;;;;;;24.98;13.98;;;13.00;99.90;;;;;;5017183;28;20476;-70
2021/10/27 03:21:14;;;;;;;21.98;14.02;;;13.00;99.90;;;;;;5017088;28;20024;-70
2021/10/27 03:23:39;;;;;;;22.67;14.18;;;13.00;99.90;;;;;;5015011;28;20100;-70
2021/10/27 03:26:05;;;;;;;25.45;14.95;;;13.00;99.90;;;;;;5013267;28;20044;-70
2021/10/27 03:28:31;;;;;;;22.92;14.43;;;13.00;99.90;;;;;;5015661;28;20044;-70
2021/10/27 03:30:57;;;;;;;25.48;14.10;;;13.00;99.90;;;;;;5014351;28;20450;-70
2021/10/27 03:33:22;;;;;;;24.50;14.50;;;13.00;99.90;;;;;;5013607;28;20037;-70
2021/10/27 03:35:49;;;;;;;25.40;15.10;;;13.00;99.90;;;;;;5012325;28;20109;-70
2021/10/27 03:38:15;;;;;;;21.58;13.68;;;13.00;99.90;;;;;;5014417;28;20029;-70
2021/10/27 03:40:43;;;;;;;22.52;14.52;;;13.00;99.90;;;;;;5015057;28;20021;-70
2021/10/27 03:43:08;;;;;;;25.70;14.75;;;13.10;99.90;;;;;;5012355;28;20034;-70
2021/10/27 03:45:34;;;;;;;26.30;14.48;;;13.00;99.90;;;;;;5010994;28;20543;-70
2021/10/27 03:48:00;;;;;;;20.75;12.48;;;13.00;99.90;;;;;;5011217;28;20037;-71
2021/10/27 03:50:25;;;;;;;23.38;13.65;;;13.00;99.90;;;;;;5022397;28;20033;-71
2021/10/27 03:52:51;;;;;;;27.55;14.77;;;13.00;99.90;;;;;;5017119;28;20640;-70
2021/10/27 03:55:17;;;;;;;24.65;14.13;;;13.00;99.90;;;;;;5013417;28;20534;-70
2021/10/27 03:57:42;;;;;;;27.85;13.98;;;13.00;99.90;;;;;;5013780;28;20480;-70
2021/10/27 04:00:11;;;;;;;29.70;14.02;;;13.00;99.90;;;;;;5012788;28;20030;-70
2021/10/27 04:02:41;;;;;;;25.83;15.15;;;13.00;99.90;;;;;;5015543;28;20115;-70
2021/10/27 04:05:08;;;;;;;23.83;14.85;;;13.00;99.90;;;;;;5012557;28;20037;-71
2021/10/27 04:07:36;;;;;;;24.52;15.40;;;13.00;99.90;;;;;;5013481;28;20025;-71
2021/10/27 04:10:07;;;;;;;22.42;13.75;;;13.00;99.90;;;;;;5016158;28;20030;-70
2021/10/27 04:12:34;;;;;;;24.23;14.88;;;13.00;99.90;;;;;;5012671;28;20051;-71
2021/10/27 04:15:00;;;;;;;22.48;14.93;;;13.00;99.90;;;;;;5008364;28;20548;-70
2021/10/27 04:17:26;;;;;;;24.33;15.27;;;13.00;99.90;;;;;;5011278;28;20033;-71
2021/10/27 04:19:52;;;;;;;27.92;16.05;;;13.00;99.90;;;;;;5014689;28;20025;-70
2021/10/27 04:22:18;;;;;;;26.17;15.48;;;13.00;99.90;;;;;;5014312;28;20038;-70
2021/10/27 04:24:43;;;;;;;25.00;16.20;;;13.00;99.90;;;;;;5015997;28;20097;-70
2021/10/27 04:27:09;;;;;;;22.63;14.23;;;13.00;99.90;;;;;;5017569;28;20034;-70
2021/10/27 04:29:34;;;;;;;31.00;16.30;;;13.00;99.90;;;;;;5013605;28;20030;-70
2021/10/27 04:32:00;;;;;;;27.67;17.25;;;13.00;99.90;;;;;;5010808;28;20037;-70
2021/10/27 04:34:26;;;;;;;29.83;17.67;;;13.00;99.90;;;;;;5010221;28;20515;-70
2021/10/27 04:36:52;;;;;;;28.00;15.77;;;13.00;99.90;;;;;;5012944;28;20025;-70
2021/10/27 04:39:18;;;;;;;25.75;16.75;;;13.00;99.90;;;;;;5011403;28;20105;-70
2021/10/27 04:41:43;;;;;;;28.58;16.75;;;13.00;99.90;;;;;;5010332;28;20025;-71
2021/10/27 04:44:09;;;;;;;28.58;16.33;;;13.00;99.90;;;;;;5006290;28;20034;-70
2021/10/27 04:46:35;;;;;;;28.95;15.20;;;13.00;99.90;;;;;;5010379;28;20040;-70
2021/10/27 04:49:01;;;;;;;27.83;16.55;;;13.10;99.90;;;;;;5009589;28;20105;-70
2021/10/27 04:51:26;;;;;;;26.00;16.13;;;13.00;99.90;;;;;;5011546;28;20446;-70
2021/10/27 04:53:52;;;;;;;26.58;15.70;;;13.10;99.90;;;;;;5012680;28;20031;-70
2021/10/27 04:56:18;;;;;;;24.02;14.45;;;13.10;99.90;;;;;;5009744;28;20424;-71
2021/10/27 04:58:43;;;;;;;32.05;17.08;;;13.10;99.90;;;;;;5011735;28;20032;-70
2021/10/27 05:01:09;;;;;;;27.38;16.10;;;13.10;99.90;;;;;;5006024;28;20022;-70
2021/10/27 05:03:35;;;;;;;29.90;16.65;;;13.10;99.90;;;;;;5012405;28;20033;-70
2021/10/27 05:06:02;;;;;;;28.98;16.42;;;13.10;99.90;;;;;;5006609;28;20033;-70
2021/10/27 05:08:30;;;;;;;26.45;15.65;;;13.10;99.90;;;;;;5013767;28;20527;-70
2021/10/27 05:10:56;;;;;;;23.45;14.10;;;13.10;99.90;;;;;;5008389;28;20018;-71
2021/10/27 05:13:22;;;;;;;24.55;16.30;;;13.10;99.90;;;;;;5010283;28;20056;-71
2021/10/27 05:15:48;;;;;;;26.48;16.92;;;13.10;99.90;;;;;;5003600;28;20100;-71
2021/10/27 05:18:15;;;;;;;29.58;15.50;;;13.10;99.90;;;;;;5003537;28;20034;-70
2021/10/27 05:20:42;;;;;;;21.58;14.52;;;13.10;99.90;;;;;;5007498;28;20029;-70
2021/10/27 05:23:08;;;;;;;23.52;14.48;;;13.10;99.90;;;;;;5004728;28;20772;-71
2021/10/27 05:25:33;;;;;;;27.90;15.50;;;13.10;99.90;;;;;;5001414;28;20033;-71
2021/10/27 05:27:59;;;;;;;24.60;14.90;;;13.10;99.90;;;;;;5011272;28;20033;-71
2021/10/27 05:30:24;;;;;;;25.80;14.70;;;13.10;99.90;;;;;;5011127;28;20034;-71
2021/10/27 05:32:56;;;;;;;26.02;16.70;;;13.20;99.90;;;;;;5002012;28;20958;-71
2021/10/27 05:35:21;;;;;;;;;;;13.10;99.90;;;;;;5009159;28;20511;-71
2021/10/27 05:37:47;;;;;;;22.25;15.48;;;13.10;99.90;;;;;;5012794;28;19910;-71
2021/10/27 05:40:12;;;;;;;23.20;14.20;;;13.10;99.90;;;;;;5012305;28;20031;-71
2021/10/27 05:42:40;;;;;;;25.10;14.85;;;13.10;99.90;;;;;;5015158;28;20033;-71
2021/10/27 05:45:07;;;;;;;25.17;15.00;;;13.10;99.90;;;;;;5016904;28;20034;-71
2021/10/27 05:47:33;;;;;;;24.00;14.52;;;13.20;99.90;;;;;;5017300;28;20041;-71
2021/10/27 05:55:28;;;;;;;27.23;14.43;;;13.10;99.90;;;;;;5015272;28;20049;-71
2021/10/27 05:57:55;;;;;;;27.60;15.95;;;13.10;99.90;;;;;;5012582;28;20068;-71
2021/10/27 06:00:21;;;;;;;29.58;15.68;;;13.10;99.90;;;;;;5014154;28;20029;-71
2021/10/27 06:02:46;;;;;;;23.42;14.40;;;13.10;99.90;;;;;;5017298;28;20040;-71
2021/10/27 06:05:12;;;;;;;26.10;15.90;;;13.10;99.90;;;;;;5018385;28;20510;-71
2021/10/27 06:07:38;;;;;;;27.15;15.35;;;13.20;99.90;;;;;;5014804;28;20104;-70
2021/10/27 06:10:05;;;;;;;21.00;13.63;;;13.20;99.90;;;;;;5010490;28;20368;-70
2021/10/27 06:12:31;;;;;;;26.85;14.93;;;13.20;99.90;;;;;;5015940;28;20037;-71
2021/10/27 06:14:57;;;;;;;23.38;14.05;;;13.20;99.90;;;;;;5026742;28;20049;-71
2021/10/27 06:17:23;;;;;;;24.23;14.77;;;13.20;99.90;;;;;;5016881;28;20034;-72
2021/10/27 06:19:52;;;;;;;29.95;15.50;;;13.20;99.90;;;;;;5022276;28;20399;-70
2021/10/27 06:22:19;;;;;;;28.67;14.73;;;13.20;99.90;;;;;;5015048;28;20623;-70
2021/10/27 06:24:46;;;;;;;26.08;14.10;;;13.20;99.90;;;;;;5019537;28;20041;-70
2021/10/27 06:27:12;;;;;;;20.73;14.48;;;13.20;99.90;;;;;;5017085;28;20129;-70
2021/10/27 06:29:46;;;;;;;27.10;14.68;;;13.20;99.90;;;;;;5016015;28;20026;-70
2021/10/27 06:35:07;;;;;;;25.58;14.82;;;13.20;99.90;;;;;;5014441;28;20018;-70
2021/10/27 06:37:49;;;;;;;22.42;15.00;;;13.20;99.90;;;;;;5014458;28;20391;-70
2021/10/27 06:46:00;;;;;;;26.08;15.82;;;13.20;99.90;;;;;;4958694;28;20584;-70
2021/10/27 06:48:26;;;;;;;23.85;15.27;;;13.20;99.90;;;;;;5016989;28;20403;-71
2021/10/27 06:50:52;;;;;;;25.63;14.35;;;13.20;99.90;;;;;;5015629;28;20026;-70
2021/10/27 06:53:18;;;;;;;27.85;17.45;;;13.20;99.90;;;;;;5013920;28;20037;-71
2021/10/27 06:55:44;;;;;;;24.65;14.18;;;13.20;99.90;;;;;;5024298;28;20430;-70
2021/10/27 06:58:11;;;;;;;26.23;15.57;;;13.30;99.90;;;;;;5020775;28;20032;-70
2021/10/27 07:00:46;;;;;;;19.90;14.07;;;13.30;99.90;;;;;;5016495;28;20484;-70
2021/10/27 07:06:08;;;;;;;24.60;14.57;;;13.30;99.90;;;;;;5018855;28;20033;-71
2021/10/27 07:16:47;;;;;;;22.83;13.35;;;13.30;99.90;;;;;;5017320;28;20503;-70
2021/10/27 07:19:13;;;;;;;21.40;14.68;;;13.30;99.90;;;;;;5017753;28;20045;-70
2021/10/27 07:21:39;;;;;;;23.20;14.57;;;13.30;99.90;;;;;;5015640;28;20030;-70
2021/10/27 07:24:05;;;;;;;24.10;15.77;;;13.30;99.90;;;;;;5018208;28;20038;-70
2021/10/27 07:26:32;;;;;;;23.15;15.50;;;13.40;99.90;;;;;;5017977;28;20040;-70
2021/10/27 07:28:57;;;;;;;24.45;15.95;;;13.40;99.90;;;;;;5017609;28;20029;-70
2021/10/27 07:31:24;;;;;;;24.95;15.80;;;13.40;99.90;;;;;;5019002;28;20053;-70
2021/10/27 07:33:58;;;;;;;21.27;15.05;;;13.40;99.90;;;;;;5015464;28;20100;-70
2021/10/27 07:41:52;;;;;;;22.98;15.13;;;13.40;99.90;;;;;;5018210;28;20034;-70
2021/10/27 07:44:23;;;;;;;24.08;16.13;;;13.40;99.90;;;;;;5020188;28;20028;-70
2021/10/27 07:46:49;;;;;;;21.05;14.43;;;13.40;99.90;;;;;;5015217;28;20035;-70
2021/10/27 07:49:15;;;;;;;24.10;14.55;;;13.50;99.90;;;;;;5011227;28;20081;-70
2021/10/27 07:51:40;;;;;;;26.83;17.08;;;13.50;99.90;;;;;;5016337;28;20025;-71
2021/10/27 07:54:06;;;;;;;24.40;16.25;;;13.50;99.90;;;;;;5019773;28;20022;-70
2021/10/27 07:56:32;;;;;;;22.67;14.88;;;13.50;99.90;;;;;;5014068;28;20447;-70
2021/10/27 07:59:01;;;;;;;25.42;16.60;;;13.60;99.90;;;;;;5034517;28;20060;-70
2021/10/27 08:01:27;;;;;;;22.65;14.63;;;13.50;99.90;;;;;;5016275;28;20040;-70
2021/10/27 08:03:53;;;;;;;20.92;14.57;;;13.50;99.90;;;;;;5017260;28;20040;-70
2021/10/27 08:06:19;;;;;;;26.77;16.85;;;13.50;99.90;;;;;;5017159;28;20064;-71
2021/10/27 08:08:44;;;;;;;22.58;15.00;;;13.50;99.90;;;;;;5015665;28;20480;-70
2021/10/27 08:11:11;;;;;;;26.60;16.52;;;13.60;99.90;;;;;;5010929;28;20030;-70
2021/10/27 08:13:38;;;;;;;29.52;15.70;;;13.60;99.90;;;;;;5017206;28;20029;-70
2021/10/27 08:16:04;;;;;;;24.65;14.90;;;13.60;99.90;;;;;;5013155;28;20075;-70
2021/10/27 08:18:30;;;;;;;20.88;13.85;;;13.60;99.90;;;;;;5015546;28;20022;-70
2021/10/27 08:20:55;;;;;;;22.13;14.63;;;13.60;99.90;;;;;;5007823;28;20014;-70
2021/10/27 08:23:23;;;;;;;20.92;13.60;;;13.60;99.90;;;;;;5016178;28;20040;-70
2021/10/27 08:25:53;;;;;;;22.50;14.30;;;13.60;99.90;;;;;;5007948;28;20034;-70
2021/10/27 08:28:39;;;;;;;18.67;13.40;;;13.60;99.90;;;;;;5015463;28;20515;-70
2021/10/27 08:31:12;;;;;;;23.02;15.63;;;13.60;99.90;;;;;;5016298;28;20041;-70
2021/10/27 08:36:07;;;;;;;26.45;14.63;;;13.60;99.90;;;;;;5017068;28;20037;-70
2021/10/27 08:38:34;;;;;;;19.40;12.45;;;13.60;99.90;;;;;;5007738;28;20030;-70
2021/10/27 08:41:01;;;;;;;19.98;12.60;;;13.70;99.90;;;;;;5014906;28;20550;-70
2021/10/27 08:43:28;;;;;;;19.35;12.98;;;13.70;99.90;;;;;;5006904;28;20041;-70
2021/10/27 08:45:54;;;;;;;22.75;14.07;;;13.70;99.90;;;;;;5016957;28;20061;-70
2021/10/27 08:48:20;;;;;;;32.03;14.43;;;13.70;99.90;;;;;;5017654;28;20065;-70
2021/10/27 08:50:48;;;;;;;22.08;13.20;;;13.70;99.90;;;;;;5018772;28;20029;-71
2021/10/27 08:53:15;;;;;;;22.02;13.68;;;13.80;99.90;;;;;;5018703;28;20026;-71
2021/10/27 08:55:45;;;;;;;18.85;11.50;;;13.80;99.90;;;;;;5013629;28;20025;-70
2021/10/27 08:58:14;;;;;;;14.90;10.20;;;13.80;99.90;;;;;;5011481;28;20030;-70
2021/10/27 09:00:54;;;;;;;19.33;11.25;;;14.00;99.90;;;;;;5012169;28;20345;-70
2021/10/27 09:43:35;;;;;;;14.90;9.73;;;14.30;99.90;;;;;;4964115;28;20045;-70
2021/10/27 10:05:12;;;;;;;18.98;11.10;;;14.00;99.90;;;;;;5017483;28;20601;-70
2021/10/27 10:07:39;;;;;;;18.20;12.30;;;14.10;99.90;;;;;;5033290;28;20046;-71
2021/10/27 10:10:07;;;;;;;16.02;11.55;;;14.00;99.90;;;;;;5011103;28;20029;-70
2021/10/27 10:12:35;;;;;;;23.98;13.93;;;14.00;99.90;;;;;;5018761;28;20029;-70
2021/10/27 10:15:01;;;;;;;16.33;12.48;;;14.00;99.90;;;;;;5014206;28;20437;-70
2021/10/27 10:17:27;;;;;;;18.42;12.13;;;14.00;99.90;;;;;;5020507;28;20471;-70
2021/10/27 10:19:54;;;;;;;18.48;12.55;;;14.00;99.90;;;;;;5017860;28;20033;-71
2021/10/27 10:22:28;;;;;;;15.13;10.70;;;14.10;99.90;;;;;;5019446;28;20030;-70
2021/10/27 10:25:17;;;;;;;17.92;11.93;;;14.00;99.90;;;;;;5019371;28;20033;-71
2021/10/27 10:27:47;;;;;;;16.73;11.30;;;14.10;99.90;;;;;;5016417;28;20515;-70
2021/10/27 10:30:45;;;;;;;13.77;10.77;;;14.10;99.90;;;;;;5014782;28;20038;-70
2021/10/27 10:33:12;;;;;;;14.38;11.52;;;14.20;99.90;;;;;;5020786;28;20165;-71
2021/10/27 10:36:08;;;;;;;16.50;12.25;;;14.20;99.90;;;;;;5018670;28;20139;-71
2021/10/27 10:39:25;;;;;;;15.70;12.15;;;14.20;99.90;;;;;;5015787;28;20520;-71
2021/10/27 11:40:41;;;;;;;14.63;10.43;;;14.30;99.90;;;;;;5011487;28;20131;-71
2021/10/27 11:45:54;;;;;;;15.38;10.23;;;14.30;99.90;;;;;;5008596;28;20496;-71
2021/10/27 11:51:10;;;;;;;11.75;9.43;;;14.30;99.90;;;;;;5012444;28;20036;-71
2021/10/27 11:53:37;;;;;;;14.40;9.55;;;14.30;99.90;;;;;;5017155;28;20427;-71
2021/10/27 11:56:15;;;;;;;14.73;9.60;;;14.20;99.90;;;;;;5006309;28;20229;-71
2021/10/27 11:58:44;;;;;;;12.15;8.93;;;14.20;99.90;;;;;;5007974;28;20025;-71
2021/10/27 12:01:25;;;;;;;13.75;9.77;;;14.30;99.90;;;;;;5011211;28;20523;-71
2021/10/27 12:03:51;;;;;;;66.50;33.92;;;14.30;99.90;;;;;;5014835;28;20033;-71
2021/10/27 12:06:32;;;;;;;97.13;44.22;;;14.30;99.90;;;;;;5009748;28;20018;-71
2021/10/27 12:09:26;;;;;;;79.35;38.95;;;14.40;99.90;;;;;;5011935;28;20030;-71
2021/10/27 12:12:12;;;;;;;117.82;52.88;;;14.40;99.90;;;;;;5009490;28;20030;-71
2021/10/27 12:18:01;;;;;;;14.82;10.10;;;14.90;99.90;;;;;;5010852;28;20431;-71
2021/10/27 12:20:43;;;;;;;11.25;8.68;;;15.00;99.90;;;;;;5017912;28;20088;-71
2021/10/27 12:23:24;;;;;;;588.60;409.67;;;14.90;99.90;;;;;;5011844;28;20033;-71
2021/10/27 12:25:53;;;;;;;161.30;99.78;;;14.80;99.90;;;;;;5019067;28;20034;-71
2021/10/27 12:28:33;;;;;;;270.85;179.07;;;14.70;99.90;;;;;;5016955;28;20109;-71
2021/10/27 12:31:23;;;;;;;17.60;13.50;;;14.70;99.90;;;;;;5016385;28;20042;-71
2021/10/27 12:33:50;;;;;;;12.30;9.30;;;14.60;99.90;;;;;;5011301;28;20346;-71
2021/10/27 12:36:18;;;;;;;12.20;9.27;;;14.60;99.90;;;;;;5014583;28;20037;-71
2021/10/27 12:39:03;;;;;;;16.25;10.38;;;14.60;99.90;;;;;;5012747;28;20048;-71
2021/10/27 12:41:30;;;;;;;12.38;9.63;;;14.50;99.90;;;;;;4996181;28;20018;-71
2021/10/27 12:43:56;;;;;;;12.88;8.77;;;14.50;99.90;;;;;;5019977;28;20041;-69
2021/10/27 12:46:21;;;;;;;13.00;8.88;;;14.50;99.90;;;;;;5015981;28;20506;-69
2021/10/27 12:48:47;;;;;;;10.63;8.23;;;14.50;99.90;;;;;;5013339;28;20524;-70
2021/10/27 12:51:13;;;;;;;16.98;10.18;;;14.50;99.90;;;;;;5019860;28;20021;-70
2021/10/27 12:53:45;;;;;;;16.00;10.65;;;14.50;99.90;;;;;;5021374;28;20030;-69
2021/10/27 12:56:22;;;;;;;17.05;9.88;;;14.50;99.90;;;;;;5016791;28;20029;-70
2021/10/27 12:58:53;;;;;;;14.88;10.73;;;14.40;99.90;;;;;;5018938;28;20021;-70
2021/10/27 13:01:53;;;;;;;12.45;9.98;;;14.40;99.90;;;;;;5007487;28;20839;-70
2021/10/27 13:04:50;;;;;;;11.52;9.25;;;14.40;99.90;;;;;;5021573;28;20496;-70
2021/10/27 13:07:33;;;;;;;13.07;9.85;;;14.40;99.90;;;;;;5016035;28;20029;-70
2021/10/27 13:10:44;;;;;;;13.93;9.65;;;14.40;99.90;;;;;;5014865;28;20041;-70
2021/10/27 13:31:24;;;;;;;18.38;12.70;;;14.20;99.90;;;;;;5021392;28;20054;-70
2021/10/27 13:33:50;;;;;;;14.02;10.88;;;14.20;99.90;;;;;;5011838;28;20054;-70
2021/10/27 13:36:16;;;;;;;17.38;11.32;;;14.20;99.90;;;;;;5011979;28;20415;-70
2021/10/27 13:38:42;;;;;;;15.40;10.75;;;14.20;99.90;;;;;;5018867;28;20497;-70
2021/10/27 13:41:09;;;;;;;14.10;10.63;;;14.20;99.90;;;;;;5021435;28;20032;-71
2021/10/27 14:10:19;;;;;;;13.38;9.07;;;14.30;99.90;;;;;;5017895;28;20041;-70
2021/10/27 14:12:51;;;;;;;12.13;9.20;;;14.30;99.90;;;;;;5014925;28;20034;-71
2021/10/27 14:47:37;;;;;;;14.25;6.60;;;14.40;99.90;;;;;;5013043;28;20029;-72
2021/10/27 15:20:34;;;;;;;9.52;4.20;;;14.30;99.90;;;;;;5017390;28;20033;-69
2021/10/27 15:33:18;;;;;;;7.72;4.07;;;14.30;99.90;;;;;;5017289;28;20369;-70
2021/10/27 15:41:12;;;;;;;6.60;4.47;;;14.30;99.90;;;;;;5014885;28;20041;-69
2021/10/27 15:51:35;;;;;;;11.18;4.70;;;14.30;99.90;;;;;;5015971;28;20128;-69
2021/10/27 15:54:01;;;;;;;8.70;4.50;;;14.30;99.90;;;;;;5017791;28;20490;-69
2021/10/27 15:56:27;;;;;;;8.15;3.75;;;14.30;99.90;;;;;;5032186;28;20034;-69
2021/10/27 15:58:53;;;;;;;6.50;4.10;;;14.30;99.90;;;;;;5014723;28;20045;-69
2021/10/27 16:01:19;;;;;;;9.43;4.30;;;14.30;99.90;;;;;;5013719;28;20484;-69
2021/10/27 16:03:45;;;;;;;8.75;4.20;;;14.30;99.90;;;;;;5017444;28;20036;-69
2021/10/27 16:06:11;;;;;;;9.88;3.70;;;14.20;99.90;;;;;;5013259;28;20456;-69
2021/10/27 16:08:37;;;;;;;10.73;4.53;;;14.20;99.90;;;;;;5014319;28;20117;-70
2021/10/27 16:11:05;;;;;;;12.45;4.10;;;14.20;99.90;;;;;;5013201;28;20063;-69
2021/10/27 16:13:32;;;;;;;8.70;4.43;;;14.20;99.90;;;;;;5008111;28;20488;-70
2021/10/27 16:15:59;;;;;;;9.88;4.32;;;14.20;99.90;;;;;;5011274;28;20120;-69
2021/10/27 16:18:32;;;;;;;14.10;4.75;;;14.20;99.90;;;;;;5015519;28;20076;-70
2021/10/27 16:21:01;;;;;;;9.43;4.57;;;14.30;99.90;;;;;;5015119;28;20563;-70
2021/10/27 16:23:27;;;;;;;10.40;4.93;;;14.20;99.90;;;;;;5013610;28;20034;-70
2021/10/27 16:25:54;;;;;;;7.50;4.60;;;14.20;99.90;;;;;;5015053;28;20036;-70
2021/10/27 16:28:21;;;;;;;7.20;3.60;;;14.30;99.90;;;;;;5016429;28;20033;-70
2021/10/27 16:30:47;;;;;;;8.98;4.82;;;14.20;99.90;;;;;;5014885;28;20033;-70
2021/10/27 16:33:14;;;;;;;11.13;3.97;;;14.30;99.90;;;;;;5019222;28;20029;-70
2021/10/27 16:35:40;;;;;;;8.60;3.92;;;14.30;99.90;;;;;;5018512;28;20030;-71
2021/10/27 16:38:06;;;;;;;8.35;4.00;;;14.30;99.90;;;;;;5011616;28;20073;-71
2021/10/27 16:40:33;;;;;;;9.52;3.92;;;14.20;99.90;;;;;;5012640;28;20026;-70
2021/10/27 16:43:00;;;;;;;8.63;3.80;;;14.20;99.90;;;;;;5012316;28;20054;-70
2021/10/27 16:45:26;;;;;;;6.68;4.00;;;14.20;99.90;;;;;;5014600;28;20056;-70
2021/10/27 16:47:51;;;;;;;6.82;3.70;;;14.20;99.90;;;;;;5013750;28;20492;-71
2021/10/27 16:50:19;;;;;;;8.30;4.10;;;14.20;99.90;;;;;;5016878;28;20030;-70
2021/10/27 16:52:48;;;;;;;9.82;4.93;;;14.20;99.90;;;;;;5015134;28;20054;-70
2021/10/27 16:55:19;;;;;;;11.25;5.85;;;14.20;99.90;;;;;;5002295;28;20481;-70
2021/10/27 16:57:47;;;;;;;7.80;3.47;;;14.20;99.90;;;;;;5009590;28;20022;-70
2021/10/27 17:00:15;;;;;;;8.00;4.78;;;14.20;99.90;;;;;;5020978;28;20026;-70
2021/10/27 17:02:41;;;;;;;8.30;3.67;;;14.20;99.90;;;;;;5021405;28;20030;-70
2021/10/27 17:05:07;;;;;;;9.45;4.38;;;14.20;99.90;;;;;;5014146;28;20377;-70
2021/10/27 17:07:34;;;;;;;8.40;3.92;;;14.20;99.90;;;;;;5012566;28;20034;-70
2021/10/27 17:10:02;;;;;;;9.63;4.18;;;14.20;99.90;;;;;;5014021;28;20038;-70
2021/10/27 17:12:28;;;;;;;777.35;484.00;;;14.20;99.90;;;;;;5018184;28;20045;-69
2021/10/27 17:14:53;;;;;;;392.25;219.40;;;14.20;99.90;;;;;;5014165;28;20048;-70
2021/10/27 17:17:20;;;;;;;159.88;98.85;;;14.20;99.90;;;;;;5014821;28;20030;-70
2021/10/27 17:19:46;;;;;;;17.92;10.07;;;14.20;99.90;;;;;;5014380;28;20041;-72
2021/10/27 17:22:13;;;;;;;8.68;4.78;;;14.20;99.90;;;;;;5012052;28;20026;-70
2021/10/27 17:24:40;;;;;;;8.35;3.70;;;14.20;99.90;;;;;;5015967;28;20059;-70
2021/10/27 17:27:06;;;;;;;6.80;4.10;;;14.20;99.90;;;;;;5015058;28;20026;-71